sensor_id;sensor_type;location;lat;lon;timestamp;P1;durP1;ratioP1;P2;durP2;ratioP2
31990;SDS011;18508;49.386;8.370;2022-09-01T00:00:25;16.63;;;12.02;;
31990;SDS011;18508;49.386;8.370;2022-09-01T00:02:55;20.73;;;12.63;;
31990;SDS011;18508;49.386;8.370;2022-09-01T00:05:23;18.65;;;11.90;;
31990;SDS011;18508;49.386;8.370;2022-09-01T00:07:50;18.85;;;13.10;;
31990;SDS011;18508;49.386;8.370;2022-09-01T00:10:18;18.40;;;11.90;;
31990;SDS011;18508;49.386;8.370;2022-09-01T00:12:47;16.77;;;11.88;;
31990;SDS011;18508;49.386;8.370;2022-09-01T00:15:15;18.48;;;11.93;;
31990;SDS011;18508;49.386;8.370;2022-09-01T00:17:44;15.57;;;12.45;;
31990;SDS011;18508;49.386;8.370;2022-09-01T00:20:12;14.60;;;11.80;;
31990;SDS011;18508;49.386;8.370;2022-09-01T00:22:45;16.35;;;12.57;;
31990;SDS011;18508;49.386;8.370;2022-09-01T00:25:14;17.55;;;12.18;;
31990;SDS011;18508;49.386;8.370;2022-09-01T00:27:44;18.27;;;12.48;;
31990;SDS011;18508;49.386;8.370;2022-09-01T00:30:12;18.60;;;12.77;;
31990;SDS011;18508;49.386;8.370;2022-09-01T00:32:40;16.38;;;12.27;;
31990;SDS011;18508;49.386;8.370;2022-09-01T00:35:13;18.45;;;12.45;;
31990;SDS011;18508;49.386;8.370;2022-09-01T00:37:41;19.25;;;13.30;;
31990;SDS011;18508;49.386;8.370;2022-09-01T00:40:11;19.08;;;13.40;;
31990;SDS011;18508;49.386;8.370;2022-09-01T00:42:40;17.83;;;13.23;;
31990;SDS011;18508;49.386;8.370;2022-09-01T00:45:09;19.48;;;13.48;;
31990;SDS011;18508;49.386;8.370;2022-09-01T00:47:38;20.38;;;13.98;;
31990;SDS011;18508;49.386;8.370;2022-09-01T00:50:07;18.50;;;13.77;;
31990;SDS011;18508;49.386;8.370;2022-09-01T00:52:38;18.63;;;13.30;;
31990;SDS011;18508;49.386;8.370;2022-09-01T00:55:11;21.58;;;13.40;;
31990;SDS011;18508;49.386;8.370;2022-09-01T00:57:42;20.58;;;14.85;;
31990;SDS011;18508;49.386;8.370;2022-09-01T01:00:11;18.92;;;14.32;;
31990;SDS011;18508;49.386;8.370;2022-09-01T01:02:43;19.90;;;14.27;;
31990;SDS011;18508;49.386;8.370;2022-09-01T01:05:11;19.80;;;14.32;;
31990;SDS011;18508;49.386;8.370;2022-09-01T01:07:42;19.42;;;14.43;;
31990;SDS011;18508;49.386;8.370;2022-09-01T01:10:13;19.90;;;13.85;;
31990;SDS011;18508;49.386;8.370;2022-09-01T01:12:43;18.88;;;13.77;;
31990;SDS011;18508;49.386;8.370;2022-09-01T01:15:13;20.52;;;14.68;;
31990;SDS011;18508;49.386;8.370;2022-09-01T01:17:42;22.95;;;14.40;;
31990;SDS011;18508;49.386;8.370;2022-09-01T01:20:10;22.27;;;14.68;;
31990;SDS011;18508;49.386;8.370;2022-09-01T01:23:02;19.13;;;13.60;;
31990;SDS011;18508;49.386;8.370;2022-09-01T01:25:39;21.17;;;14.88;;
31990;SDS011;18508;49.386;8.370;2022-09-01T01:30:40;20.83;;;14.43;;
31990;SDS011;18508;49.386;8.370;2022-09-01T01:33:10;20.95;;;14.80;;
31990;SDS011;18508;49.386;8.370;2022-09-01T01:35:38;20.42;;;13.88;;
31990;SDS011;18508;49.386;8.370;2022-09-01T01:38:07;17.63;;;13.93;;
31990;SDS011;18508;49.386;8.370;2022-09-01T01:40:35;19.63;;;13.75;;
31990;SDS011;18508;49.386;8.370;2022-09-01T01:43:06;19.38;;;14.73;;
31990;SDS011;18508;49.386;8.370;2022-09-01T01:45:34;17.15;;;13.55;;
31990;SDS011;18508;49.386;8.370;2022-09-01T01:48:02;22.55;;;13.88;;
31990;SDS011;18508;49.386;8.370;2022-09-01T01:50:31;17.52;;;14.00;;
31990;SDS011;18508;49.386;8.370;2022-09-01T01:53:01;15.98;;;13.13;;
31990;SDS011;18508;49.386;8.370;2022-09-01T01:55:36;14.85;;;13.02;;
31990;SDS011;18508;49.386;8.370;2022-09-01T01:58:08;20.30;;;13.38;;
31990;SDS011;18508;49.386;8.370;2022-09-01T02:00:37;17.58;;;13.32;;
31990;SDS011;18508;49.386;8.370;2022-09-01T02:03:09;18.25;;;13.77;;
31990;SDS011;18508;49.386;8.370;2022-09-01T02:05:42;17.90;;;14.35;;
31990;SDS011;18508;49.386;8.370;2022-09-01T02:08:11;15.63;;;13.45;;
31990;SDS011;18508;49.386;8.370;2022-09-01T02:10:41;17.35;;;13.43;;
31990;SDS011;18508;49.386;8.370;2022-09-01T02:13:12;14.40;;;12.90;;
31990;SDS011;18508;49.386;8.370;2022-09-01T02:15:43;20.70;;;13.65;;
31990;SDS011;18508;49.386;8.370;2022-09-01T02:18:13;15.55;;;12.73;;
31990;SDS011;18508;49.386;8.370;2022-09-01T02:20:44;15.38;;;13.50;;
31990;SDS011;18508;49.386;8.370;2022-09-01T02:23:14;14.32;;;12.82;;
31990;SDS011;18508;49.386;8.370;2022-09-01T02:25:48;15.40;;;12.77;;
31990;SDS011;18508;49.386;8.370;2022-09-01T02:28:40;16.02;;;12.85;;
31990;SDS011;18508;49.386;8.370;2022-09-01T02:31:09;15.05;;;12.90;;
31990;SDS011;18508;49.386;8.370;2022-09-01T02:33:39;14.25;;;12.43;;
31990;SDS011;18508;49.386;8.370;2022-09-01T02:36:10;15.88;;;13.05;;
31990;SDS011;18508;49.386;8.370;2022-09-01T02:38:41;13.82;;;12.27;;
31990;SDS011;18508;49.386;8.370;2022-09-01T02:41:11;14.98;;;12.23;;
31990;SDS011;18508;49.386;8.370;2022-09-01T02:43:41;16.20;;;12.98;;
31990;SDS011;18508;49.386;8.370;2022-09-01T02:46:09;14.20;;;12.60;;
31990;SDS011;18508;49.386;8.370;2022-09-01T02:48:39;19.13;;;12.93;;
31990;SDS011;18508;49.386;8.370;2022-09-01T02:51:12;17.67;;;13.10;;
31990;SDS011;18508;49.386;8.370;2022-09-01T02:53:43;18.33;;;13.20;;
31990;SDS011;18508;49.386;8.370;2022-09-01T02:56:14;15.32;;;12.95;;
31990;SDS011;18508;49.386;8.370;2022-09-01T02:58:45;15.88;;;12.30;;
31990;SDS011;18508;49.386;8.370;2022-09-01T03:01:13;16.52;;;13.07;;
31990;SDS011;18508;49.386;8.370;2022-09-01T03:06:14;14.10;;;12.20;;
31990;SDS011;18508;49.386;8.370;2022-09-01T03:08:45;19.25;;;13.50;;
31990;SDS011;18508;49.386;8.370;2022-09-01T03:11:13;15.27;;;12.98;;
31990;SDS011;18508;49.386;8.370;2022-09-01T03:13:41;15.82;;;12.77;;
31990;SDS011;18508;49.386;8.370;2022-09-01T03:16:11;16.75;;;12.15;;
31990;SDS011;18508;49.386;8.370;2022-09-01T03:18:39;16.42;;;12.63;;
31990;SDS011;18508;49.386;8.370;2022-09-01T03:21:08;14.75;;;12.38;;
31990;SDS011;18508;49.386;8.370;2022-09-01T03:23:40;14.02;;;12.00;;
31990;SDS011;18508;49.386;8.370;2022-09-01T03:26:08;16.20;;;12.38;;
31990;SDS011;18508;49.386;8.370;2022-09-01T03:28:36;13.45;;;12.05;;
31990;SDS011;18508;49.386;8.370;2022-09-01T03:31:05;14.52;;;11.75;;
31990;SDS011;18508;49.386;8.370;2022-09-01T03:33:35;16.30;;;11.38;;
31990;SDS011;18508;49.386;8.370;2022-09-01T03:36:03;13.52;;;12.13;;
31990;SDS011;18508;49.386;8.370;2022-09-01T03:38:40;16.17;;;11.30;;
31990;SDS011;18508;49.386;8.370;2022-09-01T03:41:09;12.98;;;11.55;;
31990;SDS011;18508;49.386;8.370;2022-09-01T03:43:38;12.60;;;11.23;;
31990;SDS011;18508;49.386;8.370;2022-09-01T03:46:13;16.88;;;11.98;;
31990;SDS011;18508;49.386;8.370;2022-09-01T03:48:47;14.07;;;11.45;;
31990;SDS011;18508;49.386;8.370;2022-09-01T03:51:16;13.05;;;11.73;;
31990;SDS011;18508;49.386;8.370;2022-09-01T03:53:48;13.55;;;10.75;;
31990;SDS011;18508;49.386;8.370;2022-09-01T03:56:19;12.65;;;10.95;;
31990;SDS011;18508;49.386;8.370;2022-09-01T03:58:49;14.38;;;11.77;;
31990;SDS011;18508;49.386;8.370;2022-09-01T04:01:19;12.38;;;11.05;;
31990;SDS011;18508;49.386;8.370;2022-09-01T04:03:49;13.85;;;11.02;;
31990;SDS011;18508;49.386;8.370;2022-09-01T04:06:18;14.85;;;11.88;;
31990;SDS011;18508;49.386;8.370;2022-09-01T04:08:49;12.25;;;10.93;;
31990;SDS011;18508;49.386;8.370;2022-09-01T04:11:28;15.68;;;11.07;;
31990;SDS011;18508;49.386;8.370;2022-09-01T04:13:57;12.80;;;10.60;;
31990;SDS011;18508;49.386;8.370;2022-09-01T04:16:26;14.80;;;10.77;;
31990;SDS011;18508;49.386;8.370;2022-09-01T04:19:15;16.30;;;11.20;;
31990;SDS011;18508;49.386;8.370;2022-09-01T04:21:51;12.13;;;10.88;;
31990;SDS011;18508;49.386;8.370;2022-09-01T04:24:22;12.23;;;10.15;;
31990;SDS011;18508;49.386;8.370;2022-09-01T04:26:53;12.60;;;10.98;;
31990;SDS011;18508;49.386;8.370;2022-09-01T04:29:24;13.30;;;10.75;;
31990;SDS011;18508;49.386;8.370;2022-09-01T04:31:53;21.50;;;11.10;;
31990;SDS011;18508;49.386;8.370;2022-09-01T04:34:23;22.25;;;11.65;;
31990;SDS011;18508;49.386;8.370;2022-09-01T04:36:52;15.73;;;11.00;;
31990;SDS011;18508;49.386;8.370;2022-09-01T04:39:22;18.88;;;11.05;;
31990;SDS011;18508;49.386;8.370;2022-09-01T04:41:50;15.02;;;11.48;;
31990;SDS011;18508;49.386;8.370;2022-09-01T04:44:19;16.33;;;12.88;;
31990;SDS011;18508;49.386;8.370;2022-09-01T04:46:47;14.60;;;12.05;;
31990;SDS011;18508;49.386;8.370;2022-09-01T04:49:16;18.13;;;11.48;;
31990;SDS011;18508;49.386;8.370;2022-09-01T04:51:49;17.13;;;10.68;;
31990;SDS011;18508;49.386;8.370;2022-09-01T04:54:20;16.45;;;11.80;;
31990;SDS011;18508;49.386;8.370;2022-09-01T04:56:49;19.70;;;11.68;;
31990;SDS011;18508;49.386;8.370;2022-09-01T04:59:19;18.42;;;11.40;;
31990;SDS011;18508;49.386;8.370;2022-09-01T05:01:49;19.00;;;11.50;;
31990;SDS011;18508;49.386;8.370;2022-09-01T05:04:21;16.52;;;11.73;;
31990;SDS011;18508;49.386;8.370;2022-09-01T05:06:55;14.90;;;11.55;;
31990;SDS011;18508;49.386;8.370;2022-09-01T05:09:26;19.15;;;12.35;;
31990;SDS011;18508;49.386;8.370;2022-09-01T05:11:55;16.05;;;11.50;;
31990;SDS011;18508;49.386;8.370;2022-09-01T05:14:24;20.15;;;11.15;;
31990;SDS011;18508;49.386;8.370;2022-09-01T05:16:55;15.75;;;11.25;;
31990;SDS011;18508;49.386;8.370;2022-09-01T05:19:25;15.60;;;10.55;;
31990;SDS011;18508;49.386;8.370;2022-09-01T05:21:57;18.17;;;9.80;;
31990;SDS011;18508;49.386;8.370;2022-09-01T05:24:27;12.02;;;10.00;;
31990;SDS011;18508;49.386;8.370;2022-09-01T05:27:07;10.98;;;9.15;;
31990;SDS011;18508;49.386;8.370;2022-09-01T05:29:38;13.63;;;9.40;;
31990;SDS011;18508;49.386;8.370;2022-09-01T05:32:07;11.88;;;9.50;;
31990;SDS011;18508;49.386;8.370;2022-09-01T05:34:37;10.63;;;9.38;;
31990;SDS011;18508;49.386;8.370;2022-09-01T05:37:10;13.18;;;8.70;;
31990;SDS011;18508;49.386;8.370;2022-09-01T05:39:41;14.80;;;9.55;;
31990;SDS011;18508;49.386;8.370;2022-09-01T05:42:09;11.52;;;8.60;;
31990;SDS011;18508;49.386;8.370;2022-09-01T05:44:37;12.02;;;9.27;;
31990;SDS011;18508;49.386;8.370;2022-09-01T05:47:09;11.30;;;8.65;;
31990;SDS011;18508;49.386;8.370;2022-09-01T05:49:46;13.10;;;8.60;;
31990;SDS011;18508;49.386;8.370;2022-09-01T05:52:16;13.80;;;9.35;;
31990;SDS011;18508;49.386;8.370;2022-09-01T05:54:51;10.00;;;8.65;;
31990;SDS011;18508;49.386;8.370;2022-09-01T05:57:20;13.70;;;8.50;;
31990;SDS011;18508;49.386;8.370;2022-09-01T06:00:00;12.88;;;8.85;;
31990;SDS011;18508;49.386;8.370;2022-09-01T06:02:36;12.63;;;8.57;;
31990;SDS011;18508;49.386;8.370;2022-09-01T06:05:05;13.63;;;9.48;;
31990;SDS011;18508;49.386;8.370;2022-09-01T06:07:36;8.88;;;7.75;;
31990;SDS011;18508;49.386;8.370;2022-09-01T06:10:08;14.60;;;8.32;;
31990;SDS011;18508;49.386;8.370;2022-09-01T06:12:38;11.40;;;7.60;;
31990;SDS011;18508;49.386;8.370;2022-09-01T06:15:09;14.73;;;7.65;;
31990;SDS011;18508;49.386;8.370;2022-09-01T06:17:41;15.77;;;8.02;;
31990;SDS011;18508;49.386;8.370;2022-09-01T06:20:11;14.85;;;9.18;;
31990;SDS011;18508;49.386;8.370;2022-09-01T06:22:40;12.98;;;8.95;;
31990;SDS011;18508;49.386;8.370;2022-09-01T06:25:10;11.25;;;8.07;;
31990;SDS011;18508;49.386;8.370;2022-09-01T06:27:38;11.25;;;8.50;;
31990;SDS011;18508;49.386;8.370;2022-09-01T06:30:08;13.30;;;7.53;;
31990;SDS011;18508;49.386;8.370;2022-09-01T06:32:40;10.35;;;8.27;;
31990;SDS011;18508;49.386;8.370;2022-09-01T06:35:10;14.43;;;8.48;;
31990;SDS011;18508;49.386;8.370;2022-09-01T06:37:38;11.52;;;8.48;;
31990;SDS011;18508;49.386;8.370;2022-09-01T06:40:09;12.32;;;8.25;;
31990;SDS011;18508;49.386;8.370;2022-09-01T06:42:43;12.15;;;8.43;;
31990;SDS011;18508;49.386;8.370;2022-09-01T06:45:12;13.90;;;8.13;;
31990;SDS011;18508;49.386;8.370;2022-09-01T06:47:42;9.68;;;8.25;;
31990;SDS011;18508;49.386;8.370;2022-09-01T06:50:13;10.88;;;8.63;;
31990;SDS011;18508;49.386;8.370;2022-09-01T06:53:04;12.85;;;9.63;;
31990;SDS011;18508;49.386;8.370;2022-09-01T06:55:55;11.88;;;9.07;;
31990;SDS011;18508;49.386;8.370;2022-09-01T06:58:24;12.70;;;9.13;;
31990;SDS011;18508;49.386;8.370;2022-09-01T07:00:52;13.60;;;9.00;;
31990;SDS011;18508;49.386;8.370;2022-09-01T07:03:20;11.40;;;8.05;;
31990;SDS011;18508;49.386;8.370;2022-09-01T07:05:50;12.25;;;9.40;;
31990;SDS011;18508;49.386;8.370;2022-09-01T07:08:36;11.00;;;8.68;;
31990;SDS011;18508;49.386;8.370;2022-09-01T07:11:26;12.82;;;9.60;;
31990;SDS011;18508;49.386;8.370;2022-09-01T07:14:16;15.32;;;10.38;;
31990;SDS011;18508;49.386;8.370;2022-09-01T07:16:44;15.90;;;9.35;;
31990;SDS011;18508;49.386;8.370;2022-09-01T07:19:32;15.98;;;10.13;;
31990;SDS011;18508;49.386;8.370;2022-09-01T07:22:16;17.00;;;9.52;;
31990;SDS011;18508;49.386;8.370;2022-09-01T07:25:03;13.23;;;9.48;;
31990;SDS011;18508;49.386;8.370;2022-09-01T07:27:38;12.70;;;10.07;;
31990;SDS011;18508;49.386;8.370;2022-09-01T07:30:15;16.23;;;10.57;;
31990;SDS011;18508;49.386;8.370;2022-09-01T07:32:49;15.63;;;9.18;;
31990;SDS011;18508;49.386;8.370;2022-09-01T07:35:19;13.98;;;9.65;;
31990;SDS011;18508;49.386;8.370;2022-09-01T07:37:50;27.05;;;11.05;;
31990;SDS011;18508;49.386;8.370;2022-09-01T07:40:40;14.23;;;10.65;;
31990;SDS011;18508;49.386;8.370;2022-09-01T07:43:28;14.93;;;10.38;;
31990;SDS011;18508;49.386;8.370;2022-09-01T07:46:02;15.48;;;10.32;;
31990;SDS011;18508;49.386;8.370;2022-09-01T07:48:52;14.38;;;9.82;;
31990;SDS011;18508;49.386;8.370;2022-09-01T07:51:41;17.50;;;11.25;;
31990;SDS011;18508;49.386;8.370;2022-09-01T07:54:10;16.95;;;11.10;;
31990;SDS011;18508;49.386;8.370;2022-09-01T07:56:40;16.50;;;10.27;;
31990;SDS011;18508;49.386;8.370;2022-09-01T07:59:10;13.45;;;10.73;;
31990;SDS011;18508;49.386;8.370;2022-09-01T08:01:40;15.30;;;11.00;;
31990;SDS011;18508;49.386;8.370;2022-09-01T08:04:09;15.75;;;11.70;;
31990;SDS011;18508;49.386;8.370;2022-09-01T08:06:37;14.48;;;10.70;;
31990;SDS011;18508;49.386;8.370;2022-09-01T08:09:06;13.32;;;10.93;;
31990;SDS011;18508;49.386;8.370;2022-09-01T08:11:53;13.98;;;11.57;;
31990;SDS011;18508;49.386;8.370;2022-09-01T08:14:28;15.18;;;11.50;;
31990;SDS011;18508;49.386;8.370;2022-09-01T08:16:59;19.40;;;11.60;;
31990;SDS011;18508;49.386;8.370;2022-09-01T08:19:42;11.65;;;10.20;;
31990;SDS011;18508;49.386;8.370;2022-09-01T08:22:12;12.82;;;11.30;;
31990;SDS011;18508;49.386;8.370;2022-09-01T08:24:41;13.73;;;10.90;;
31990;SDS011;18508;49.386;8.370;2022-09-01T08:27:10;13.45;;;11.05;;
31990;SDS011;18508;49.386;8.370;2022-09-01T08:29:39;13.98;;;11.27;;
31990;SDS011;18508;49.386;8.370;2022-09-01T08:32:07;14.32;;;10.48;;
31990;SDS011;18508;49.386;8.370;2022-09-01T08:34:36;11.77;;;10.35;;
31990;SDS011;18508;49.386;8.370;2022-09-01T08:37:05;14.32;;;10.35;;
31990;SDS011;18508;49.386;8.370;2022-09-01T08:39:33;13.05;;;10.60;;
31990;SDS011;18508;49.386;8.370;2022-09-01T08:42:03;13.70;;;11.05;;
31990;SDS011;18508;49.386;8.370;2022-09-01T08:44:43;15.68;;;12.07;;
31990;SDS011;18508;49.386;8.370;2022-09-01T08:47:19;16.95;;;12.85;;
31990;SDS011;18508;49.386;8.370;2022-09-01T08:50:10;11.00;;;9.00;;
31990;SDS011;18508;49.386;8.370;2022-09-01T08:52:40;9.98;;;8.18;;
31990;SDS011;18508;49.386;8.370;2022-09-01T08:55:12;10.73;;;8.55;;
31990;SDS011;18508;49.386;8.370;2022-09-01T08:57:47;10.52;;;8.27;;
31990;SDS011;18508;49.386;8.370;2022-09-01T09:00:26;15.27;;;8.98;;
31990;SDS011;18508;49.386;8.370;2022-09-01T09:03:27;14.70;;;8.63;;
31990;SDS011;18508;49.386;8.370;2022-09-01T09:06:11;9.93;;;8.05;;
31990;SDS011;18508;49.386;8.370;2022-09-01T09:08:51;9.30;;;7.85;;
31990;SDS011;18508;49.386;8.370;2022-09-01T09:14:14;10.88;;;8.48;;
31990;SDS011;18508;49.386;8.370;2022-09-01T09:16:55;12.40;;;8.38;;
31990;SDS011;18508;49.386;8.370;2022-09-01T09:19:24;9.30;;;7.88;;
31990;SDS011;18508;49.386;8.370;2022-09-01T09:21:56;9.52;;;8.48;;
31990;SDS011;18508;49.386;8.370;2022-09-01T09:24:26;9.35;;;7.07;;
31990;SDS011;18508;49.386;8.370;2022-09-01T09:27:15;9.50;;;7.75;;
31990;SDS011;18508;49.386;8.370;2022-09-01T09:29:46;8.93;;;7.78;;
31990;SDS011;18508;49.386;8.370;2022-09-01T09:32:17;10.90;;;8.77;;
31990;SDS011;18508;49.386;8.370;2022-09-01T09:34:48;13.27;;;9.85;;
31990;SDS011;18508;49.386;8.370;2022-09-01T09:37:21;10.73;;;8.20;;
31990;SDS011;18508;49.386;8.370;2022-09-01T09:40:02;10.75;;;8.68;;
31990;SDS011;18508;49.386;8.370;2022-09-01T09:42:37;9.18;;;7.70;;
31990;SDS011;18508;49.386;8.370;2022-09-01T09:45:13;9.52;;;8.07;;
31990;SDS011;18508;49.386;8.370;2022-09-01T09:47:50;9.82;;;8.05;;
31990;SDS011;18508;49.386;8.370;2022-09-01T09:50:21;8.73;;;7.55;;
31990;SDS011;18508;49.386;8.370;2022-09-01T09:52:52;8.15;;;6.80;;
31990;SDS011;18508;49.386;8.370;2022-09-01T09:55:37;10.65;;;7.75;;
31990;SDS011;18508;49.386;8.370;2022-09-01T09:58:25;10.60;;;8.10;;
31990;SDS011;18508;49.386;8.370;2022-09-01T10:01:03;10.90;;;8.80;;
31990;SDS011;18508;49.386;8.370;2022-09-01T10:03:36;9.65;;;7.88;;
31990;SDS011;18508;49.386;8.370;2022-09-01T10:06:11;11.18;;;7.40;;
31990;SDS011;18508;49.386;8.370;2022-09-01T10:08:43;9.55;;;7.85;;
31990;SDS011;18508;49.386;8.370;2022-09-01T10:11:24;11.23;;;7.10;;
31990;SDS011;18508;49.386;8.370;2022-09-01T10:14:01;8.80;;;6.90;;
31990;SDS011;18508;49.386;8.370;2022-09-01T10:16:32;9.88;;;7.45;;
31990;SDS011;18508;49.386;8.370;2022-09-01T10:19:06;9.02;;;7.68;;
31990;SDS011;18508;49.386;8.370;2022-09-01T10:21:42;10.50;;;7.38;;
31990;SDS011;18508;49.386;8.370;2022-09-01T10:24:15;8.90;;;7.93;;
31990;SDS011;18508;49.386;8.370;2022-09-01T10:26:52;10.52;;;7.53;;
31990;SDS011;18508;49.386;8.370;2022-09-01T10:29:23;9.85;;;6.47;;
31990;SDS011;18508;49.386;8.370;2022-09-01T10:32:00;11.20;;;7.30;;
31990;SDS011;18508;49.386;8.370;2022-09-01T10:34:55;8.73;;;7.82;;
31990;SDS011;18508;49.386;8.370;2022-09-01T10:37:25;7.95;;;6.43;;
31990;SDS011;18508;49.386;8.370;2022-09-01T10:40:16;7.07;;;6.38;;
31990;SDS011;18508;49.386;8.370;2022-09-01T10:42:57;9.95;;;5.85;;
31990;SDS011;18508;49.386;8.370;2022-09-01T10:45:31;6.45;;;5.40;;
31990;SDS011;18508;49.386;8.370;2022-09-01T10:48:21;6.32;;;5.25;;
31990;SDS011;18508;49.386;8.370;2022-09-01T10:57:39;6.93;;;5.55;;
31990;SDS011;18508;49.386;8.370;2022-09-01T11:09:40;5.07;;;4.38;;
31990;SDS011;18508;49.386;8.370;2022-09-01T11:12:29;5.25;;;4.40;;
31990;SDS011;18508;49.386;8.370;2022-09-01T11:18:03;7.38;;;3.75;;
31990;SDS011;18508;49.386;8.370;2022-09-01T11:20:37;4.50;;;3.88;;
31990;SDS011;18508;49.386;8.370;2022-09-01T11:23:09;5.05;;;4.32;;
31990;SDS011;18508;49.386;8.370;2022-09-01T11:25:41;4.40;;;4.00;;
31990;SDS011;18508;49.386;8.370;2022-09-01T11:31:13;4.65;;;3.65;;
31990;SDS011;18508;49.386;8.370;2022-09-01T11:34:13;5.07;;;3.53;;
31990;SDS011;18508;49.386;8.370;2022-09-01T11:36:45;4.18;;;3.25;;
31990;SDS011;18508;49.386;8.370;2022-09-01T11:39:27;4.65;;;3.05;;
31990;SDS011;18508;49.386;8.370;2022-09-01T11:42:11;3.90;;;3.28;;
31990;SDS011;18508;49.386;8.370;2022-09-01T11:44:47;4.97;;;3.88;;
31990;SDS011;18508;49.386;8.370;2022-09-01T11:47:20;3.72;;;3.03;;
31990;SDS011;18508;49.386;8.370;2022-09-01T11:49:53;5.63;;;3.58;;
31990;SDS011;18508;49.386;8.370;2022-09-01T11:52:25;6.97;;;3.88;;
31990;SDS011;18508;49.386;8.370;2022-09-01T11:54:58;3.97;;;3.45;;
31990;SDS011;18508;49.386;8.370;2022-09-01T11:57:28;4.70;;;3.38;;
31990;SDS011;18508;49.386;8.370;2022-09-01T11:59:58;5.68;;;3.95;;
31990;SDS011;18508;49.386;8.370;2022-09-01T12:02:29;5.45;;;3.40;;
31990;SDS011;18508;49.386;8.370;2022-09-01T12:05:03;6.35;;;3.50;;
31990;SDS011;18508;49.386;8.370;2022-09-01T12:07:52;4.82;;;3.60;;
31990;SDS011;18508;49.386;8.370;2022-09-01T12:10:23;5.70;;;3.53;;
31990;SDS011;18508;49.386;8.370;2022-09-01T12:13:04;5.28;;;3.65;;
31990;SDS011;18508;49.386;8.370;2022-09-01T12:15:34;3.92;;;3.38;;
31990;SDS011;18508;49.386;8.370;2022-09-01T12:18:28;6.07;;;3.40;;
31990;SDS011;18508;49.386;8.370;2022-09-01T12:20:58;4.45;;;3.47;;
31990;SDS011;18508;49.386;8.370;2022-09-01T12:23:28;5.03;;;3.33;;
31990;SDS011;18508;49.386;8.370;2022-09-01T12:26:02;4.65;;;3.42;;
31990;SDS011;18508;49.386;8.370;2022-09-01T12:28:32;3.72;;;3.08;;
31990;SDS011;18508;49.386;8.370;2022-09-01T12:31:13;5.78;;;3.60;;
31990;SDS011;18508;49.386;8.370;2022-09-01T12:33:44;5.75;;;3.28;;
31990;SDS011;18508;49.386;8.370;2022-09-01T12:36:14;4.80;;;3.42;;
31990;SDS011;18508;49.386;8.370;2022-09-01T12:38:51;4.15;;;3.53;;
31990;SDS011;18508;49.386;8.370;2022-09-01T12:41:23;4.00;;;3.20;;
31990;SDS011;18508;49.386;8.370;2022-09-01T12:46:56;4.45;;;3.30;;
31990;SDS011;18508;49.386;8.370;2022-09-01T12:49:33;4.03;;;3.40;;
31990;SDS011;18508;49.386;8.370;2022-09-01T12:52:21;5.80;;;3.25;;
31990;SDS011;18508;49.386;8.370;2022-09-01T12:54:52;4.00;;;3.60;;
31990;SDS011;18508;49.386;8.370;2022-09-01T12:57:36;4.43;;;3.60;;
31990;SDS011;18508;49.386;8.370;2022-09-01T13:00:18;4.63;;;3.70;;
31990;SDS011;18508;49.386;8.370;2022-09-01T13:02:49;5.97;;;3.78;;
31990;SDS011;18508;49.386;8.370;2022-09-01T13:05:20;4.57;;;3.50;;
31990;SDS011;18508;49.386;8.370;2022-09-01T13:07:58;4.20;;;3.25;;
31990;SDS011;18508;49.386;8.370;2022-09-01T13:10:30;4.47;;;3.30;;
31990;SDS011;18508;49.386;8.370;2022-09-01T13:13:05;5.07;;;4.22;;
31990;SDS011;18508;49.386;8.370;2022-09-01T13:15:34;7.70;;;3.85;;
31990;SDS011;18508;49.386;8.370;2022-09-01T13:18:05;4.68;;;3.67;;
31990;SDS011;18508;49.386;8.370;2022-09-01T13:20:34;4.55;;;3.55;;
31990;SDS011;18508;49.386;8.370;2022-09-01T13:23:02;6.43;;;4.03;;
31990;SDS011;18508;49.386;8.370;2022-09-01T13:25:31;4.78;;;3.83;;
31990;SDS011;18508;49.386;8.370;2022-09-01T13:27:59;4.95;;;3.45;;
31990;SDS011;18508;49.386;8.370;2022-09-01T13:30:34;8.75;;;4.00;;
31990;SDS011;18508;49.386;8.370;2022-09-01T13:33:06;6.32;;;3.70;;
31990;SDS011;18508;49.386;8.370;2022-09-01T13:35:45;7.60;;;3.83;;
31990;SDS011;18508;49.386;8.370;2022-09-01T13:38:14;5.80;;;3.60;;
31990;SDS011;18508;49.386;8.370;2022-09-01T13:40:43;3.55;;;3.25;;
31990;SDS011;18508;49.386;8.370;2022-09-01T13:43:13;5.80;;;3.80;;
31990;SDS011;18508;49.386;8.370;2022-09-01T13:45:43;4.70;;;3.65;;
31990;SDS011;18508;49.386;8.370;2022-09-01T13:48:13;4.93;;;3.83;;
31990;SDS011;18508;49.386;8.370;2022-09-01T13:50:44;4.72;;;3.50;;
31990;SDS011;18508;49.386;8.370;2022-09-01T13:53:35;4.90;;;3.88;;
31990;SDS011;18508;49.386;8.370;2022-09-01T13:56:04;5.38;;;3.60;;
31990;SDS011;18508;49.386;8.370;2022-09-01T13:58:34;4.70;;;3.60;;
31990;SDS011;18508;49.386;8.370;2022-09-01T14:01:04;6.10;;;3.90;;
31990;SDS011;18508;49.386;8.370;2022-09-01T14:03:34;6.07;;;3.55;;
31990;SDS011;18508;49.386;8.370;2022-09-01T14:06:02;5.68;;;3.63;;
31990;SDS011;18508;49.386;8.370;2022-09-01T14:08:32;3.80;;;3.30;;
31990;SDS011;18508;49.386;8.370;2022-09-01T14:11:00;5.10;;;3.90;;
31990;SDS011;18508;49.386;8.370;2022-09-01T14:13:29;5.57;;;4.28;;
31990;SDS011;18508;49.386;8.370;2022-09-01T14:15:57;4.68;;;3.70;;
31990;SDS011;18508;49.386;8.370;2022-09-01T14:18:27;4.00;;;3.60;;
31990;SDS011;18508;49.386;8.370;2022-09-01T14:21:01;5.32;;;3.40;;
31990;SDS011;18508;49.386;8.370;2022-09-01T14:23:30;4.40;;;3.42;;
31990;SDS011;18508;49.386;8.370;2022-09-01T14:25:58;6.30;;;3.60;;
31990;SDS011;18508;49.386;8.370;2022-09-01T14:28:26;5.75;;;4.72;;
31990;SDS011;18508;49.386;8.370;2022-09-01T14:30:54;4.97;;;4.10;;
31990;SDS011;18508;49.386;8.370;2022-09-01T14:33:22;5.05;;;3.60;;
31990;SDS011;18508;49.386;8.370;2022-09-01T14:35:53;6.07;;;4.93;;
31990;SDS011;18508;49.386;8.370;2022-09-01T14:38:21;6.78;;;5.57;;
31990;SDS011;18508;49.386;8.370;2022-09-01T14:40:50;7.35;;;4.80;;
31990;SDS011;18508;49.386;8.370;2022-09-01T14:43:24;5.75;;;4.10;;
31990;SDS011;18508;49.386;8.370;2022-09-01T14:46:00;8.35;;;5.75;;
31990;SDS011;18508;49.386;8.370;2022-09-01T14:48:32;5.07;;;3.53;;
31990;SDS011;18508;49.386;8.370;2022-09-01T14:51:02;5.53;;;3.45;;
31990;SDS011;18508;49.386;8.370;2022-09-01T14:53:31;3.97;;;3.58;;
31990;SDS011;18508;49.386;8.370;2022-09-01T14:55:59;5.63;;;3.42;;
31990;SDS011;18508;49.386;8.370;2022-09-01T14:58:28;4.35;;;3.15;;
31990;SDS011;18508;49.386;8.370;2022-09-01T15:00:56;4.63;;;3.17;;
31990;SDS011;18508;49.386;8.370;2022-09-01T15:03:45;6.57;;;3.63;;
31990;SDS011;18508;49.386;8.370;2022-09-01T15:06:16;5.28;;;3.50;;
31990;SDS011;18508;49.386;8.370;2022-09-01T15:08:48;5.05;;;3.42;;
31990;SDS011;18508;49.386;8.370;2022-09-01T15:11:18;4.93;;;3.03;;
31990;SDS011;18508;49.386;8.370;2022-09-01T15:13:47;5.07;;;3.55;;
31990;SDS011;18508;49.386;8.370;2022-09-01T15:16:18;4.63;;;3.50;;
31990;SDS011;18508;49.386;8.370;2022-09-01T15:18:48;4.03;;;3.08;;
31990;SDS011;18508;49.386;8.370;2022-09-01T15:21:19;4.15;;;3.13;;
31990;SDS011;18508;49.386;8.370;2022-09-01T15:23:50;5.80;;;3.50;;
31990;SDS011;18508;49.386;8.370;2022-09-01T15:26:19;3.78;;;3.13;;
31990;SDS011;18508;49.386;8.370;2022-09-01T15:28:47;4.53;;;3.47;;
31990;SDS011;18508;49.386;8.370;2022-09-01T15:31:17;3.88;;;3.25;;
31990;SDS011;18508;49.386;8.370;2022-09-01T15:33:58;4.75;;;3.03;;
31990;SDS011;18508;49.386;8.370;2022-09-01T15:36:29;4.80;;;3.00;;
31990;SDS011;18508;49.386;8.370;2022-09-01T15:38:58;3.75;;;3.10;;